UAL44 KSFO-LSZH
Flight info
| Callsign | UAL44 |
|---|---|
| Flight time | N/A |
| Altitude | 31000 |
| Route | SNTNA2 ORRCA Q120 GALLI DCT DNW/N0485F330 DCT DIK DCT GFK DCT YIX DCT DUSMA DCT MCKEE/M084F350 DCT URTAK DCT 60N050W 61N040W 61N030W 60N020W DCT ERAKA/N0480F350 DCT ETSOM/N0478F370 DCT FOYLE DCT GODOS DCT AMGOD DCT NIK M624 REMBA DCT SUTAL DCT GTQ DCT BAMEV DCT BLM |
| Aircraft | B772/H-SDE2E3FGHIJ5LORVWXY/LB1D1 |
Departure
| Time | N/A |
|---|---|
| Airport | San Francisco International Airport (KSFO) |
Arrival
| Time | 2026-05-05 08:17 |
|---|---|
| Airport | Zürich Airport (LSZH) |
| Time | Latitude | Longitude | Altitude | Speed | Heading |
|---|---|---|---|---|---|
| 2026-05-05 07:45 | 49.15096 | 6.60558 | 36899 ft | 453 kts | 159° |
| 2026-05-05 07:45 | 49.12213 | 6.62492 | 36898 ft | 453 kts | 159° |
| 2026-05-05 07:46 | 49.06450 | 6.66356 | 36900 ft | 452 kts | 159° |
| 2026-05-05 07:46 | 49.00683 | 6.70209 | 36894 ft | 453 kts | 159° |
| 2026-05-05 07:47 | 48.94889 | 6.73947 | 36909 ft | 452 kts | 161° |
| 2026-05-05 07:47 | 48.89023 | 6.77383 | 36900 ft | 452 kts | 162° |
| 2026-05-05 07:48 | 48.83137 | 6.80797 | 36903 ft | 453 kts | 162° |
| 2026-05-05 07:48 | 48.77255 | 6.84245 | 36900 ft | 454 kts | 161° |
| 2026-05-05 07:49 | 48.71371 | 6.87715 | 36910 ft | 454 kts | 161° |
| 2026-05-05 07:49 | 48.65485 | 6.91176 | 36916 ft | 454 kts | 161° |
| 2026-05-05 07:50 | 48.59595 | 6.94631 | 36919 ft | 454 kts | 161° |
| 2026-05-05 07:50 | 48.53700 | 6.98081 | 36902 ft | 454 kts | 161° |
| 2026-05-05 07:51 | 48.47810 | 7.01519 | 36905 ft | 454 kts | 162° |
| 2026-05-05 07:51 | 48.41916 | 7.04948 | 36903 ft | 454 kts | 161° |
| 2026-05-05 07:52 | 48.36054 | 7.08352 | 36904 ft | 454 kts | 161° |
| 2026-05-05 07:52 | 48.30122 | 7.11785 | 36236 ft | 464 kts | 162° |
| 2026-05-05 07:53 | 48.27117 | 7.13521 | 35632 ft | 461 kts | 162° |
| 2026-05-05 07:53 | 48.24129 | 7.15250 | 34918 ft | 459 kts | 162° |
| 2026-05-05 07:53 | 48.21159 | 7.16943 | 34150 ft | 452 kts | 165° |
| 2026-05-05 07:53 | 48.18183 | 7.18432 | 33302 ft | 440 kts | 166° |
| 2026-05-05 07:54 | 48.15308 | 7.19900 | 32399 ft | 436 kts | 162° |
| 2026-05-05 07:54 | 48.12492 | 7.21616 | 31578 ft | 438 kts | 161° |
| 2026-05-05 07:54 | 48.09709 | 7.23339 | 30743 ft | 440 kts | 160° |
| 2026-05-05 07:54 | 48.06877 | 7.25101 | 30053 ft | 440 kts | 160° |
| 2026-05-05 07:55 | 48.04042 | 7.26799 | 29340 ft | 438 kts | 161° |
| 2026-05-05 07:55 | 48.01206 | 7.28443 | 28641 ft | 436 kts | 161° |
| 2026-05-05 07:55 | 47.98374 | 7.30057 | 27968 ft | 434 kts | 161° |
| 2026-05-05 07:55 | 47.95559 | 7.31652 | 27333 ft | 431 kts | 161° |
| 2026-05-05 07:56 | 47.92759 | 7.33240 | 26683 ft | 430 kts | 161° |
| 2026-05-05 07:56 | 47.89967 | 7.34825 | 26041 ft | 429 kts | 161° |
| 2026-05-05 07:56 | 47.87182 | 7.36407 | 25417 ft | 428 kts | 160° |
| 2026-05-05 07:56 | 47.84398 | 7.37987 | 24775 ft | 428 kts | 160° |
| 2026-05-05 07:57 | 47.81609 | 7.39570 | 24129 ft | 429 kts | 160° |
| 2026-05-05 07:57 | 47.78818 | 7.41163 | 23473 ft | 430 kts | 160° |
| 2026-05-05 07:57 | 47.76026 | 7.42761 | 22741 ft | 430 kts | 160° |
| 2026-05-05 07:57 | 47.73242 | 7.44349 | 22060 ft | 427 kts | 160° |
| 2026-05-05 07:58 | 47.70471 | 7.45928 | 21421 ft | 425 kts | 160° |
| 2026-05-05 07:58 | 47.67721 | 7.47492 | 20782 ft | 421 kts | 160° |
| 2026-05-05 07:58 | 47.65167 | 7.49477 | 20154 ft | 416 kts | 143° |
| 2026-05-05 07:58 | 47.63163 | 7.52544 | 19742 ft | 413 kts | 128° |
| 2026-05-05 07:59 | 47.61730 | 7.56192 | 19415 ft | 409 kts | 115° |
| 2026-05-05 07:59 | 47.60796 | 7.60171 | 19125 ft | 408 kts | 111° |
| 2026-05-05 07:59 | 47.59924 | 7.64193 | 18829 ft | 412 kts | 111° |
| 2026-05-05 07:59 | 47.59010 | 7.68224 | 18529 ft | 413 kts | 112° |
| 2026-05-05 08:00 | 47.58073 | 7.72232 | 18214 ft | 410 kts | 113° |
| 2026-05-05 08:00 | 47.57135 | 7.76201 | 17879 ft | 408 kts | 113° |
| 2026-05-05 08:00 | 47.56202 | 7.80152 | 17545 ft | 405 kts | 113° |
| 2026-05-05 08:00 | 47.55273 | 7.84083 | 17225 ft | 403 kts | 113° |
| 2026-05-05 08:01 | 47.54348 | 7.87982 | 16924 ft | 401 kts | 113° |
| 2026-05-05 08:01 | 47.53428 | 7.91866 | 16609 ft | 398 kts | 113° |
| 2026-05-05 08:01 | 47.52519 | 7.95715 | 16336 ft | 394 kts | 113° |
| 2026-05-05 08:01 | 47.51611 | 7.99529 | 16030 ft | 393 kts | 113° |
| 2026-05-05 08:02 | 47.50701 | 8.03327 | 15738 ft | 390 kts | 115° |
| 2026-05-05 08:02 | 47.49503 | 8.06844 | 15443 ft | 382 kts | 127° |
| 2026-05-05 08:02 | 47.47961 | 8.10049 | 15173 ft | 384 kts | 129° |
| 2026-05-05 08:02 | 47.46393 | 8.13254 | 14884 ft | 385 kts | 129° |
| 2026-05-05 08:03 | 47.44851 | 8.16477 | 14587 ft | 383 kts | 128° |
| 2026-05-05 08:03 | 47.43335 | 8.19706 | 14301 ft | 382 kts | 128° |
| 2026-05-05 08:03 | 47.41837 | 8.22927 | 14028 ft | 380 kts | 128° |
| 2026-05-05 08:03 | 47.40349 | 8.26146 | 13756 ft | 379 kts | 128° |
| 2026-05-05 08:04 | 47.38867 | 8.29351 | 13424 ft | 378 kts | 128° |
| 2026-05-05 08:04 | 47.37387 | 8.32546 | 13116 ft | 376 kts | 128° |
| 2026-05-05 08:04 | 47.35953 | 8.35724 | 12800 ft | 368 kts | 122° |
| 2026-05-05 08:04 | 47.35096 | 8.39283 | 12535 ft | 373 kts | 102° |
| 2026-05-05 08:05 | 47.34884 | 8.43077 | 12283 ft | 375 kts | 97° |
| 2026-05-05 08:05 | 47.34658 | 8.46932 | 12006 ft | 379 kts | 99° |
| 2026-05-05 08:05 | 47.34382 | 8.50799 | 11713 ft | 378 kts | 99° |
| 2026-05-05 08:05 | 47.34105 | 8.54610 | 11426 ft | 367 kts | 99° |
| 2026-05-05 08:06 | 47.33845 | 8.58222 | 11143 ft | 343 kts | 99° |
| 2026-05-05 08:06 | 47.33604 | 8.61607 | 10901 ft | 322 kts | 98° |
| 2026-05-05 08:06 | 47.33380 | 8.64806 | 10677 ft | 306 kts | 99° |
| 2026-05-05 08:06 | 47.33159 | 8.67859 | 10431 ft | 295 kts | 99° |
| 2026-05-05 08:07 | 47.32941 | 8.70833 | 10220 ft | 290 kts | 99° |
| 2026-05-05 08:07 | 47.32725 | 8.73769 | 10000 ft | 288 kts | 99° |
| 2026-05-05 08:07 | 47.32517 | 8.76699 | 9797 ft | 287 kts | 99° |
| 2026-05-05 08:07 | 47.32302 | 8.79634 | 9577 ft | 289 kts | 99° |
| 2026-05-05 08:08 | 47.32086 | 8.82550 | 9331 ft | 284 kts | 99° |
| 2026-05-05 08:08 | 47.31875 | 8.85406 | 9125 ft | 278 kts | 99° |
| 2026-05-05 08:08 | 47.31666 | 8.88217 | 8886 ft | 275 kts | 99° |
| 2026-05-05 08:08 | 47.31460 | 8.90998 | 8710 ft | 271 kts | 98° |
| 2026-05-05 08:09 | 47.31253 | 8.93755 | 8519 ft | 271 kts | 98° |
| 2026-05-05 08:09 | 47.31049 | 8.96507 | 8337 ft | 270 kts | 98° |
| 2026-05-05 08:09 | 47.31043 | 8.99237 | 8106 ft | 268 kts | 77° |
| 2026-05-05 08:09 | 47.31937 | 9.01642 | 7924 ft | 273 kts | 45° |
| 2026-05-05 08:10 | 47.33559 | 9.03115 | 7757 ft | 280 kts | 18° |
| 2026-05-05 08:10 | 47.35473 | 9.03579 | 7531 ft | 279 kts | 6° |
| 2026-05-05 08:10 | 47.37413 | 9.03861 | 7375 ft | 280 kts | 6° |
| 2026-05-05 08:10 | 47.39318 | 9.04032 | 7142 ft | 269 kts | 352° |
| 2026-05-05 08:11 | 47.40984 | 9.02998 | 6997 ft | 259 kts | 319° |
| 2026-05-05 08:11 | 47.42075 | 9.00948 | 6761 ft | 252 kts | 296° |
| 2026-05-05 08:11 | 47.42678 | 8.98550 | 6532 ft | 249 kts | 279° |
| 2026-05-05 08:11 | 47.42918 | 8.96038 | 6327 ft | 247 kts | 276° |
| 2026-05-05 08:12 | 47.43111 | 8.93523 | 6064 ft | 245 kts | 274° |
| 2026-05-05 08:12 | 47.43261 | 8.91031 | 5839 ft | 242 kts | 274° |
| 2026-05-05 08:12 | 47.43417 | 8.88586 | 5607 ft | 236 kts | 275° |
| 2026-05-05 08:12 | 47.43587 | 8.86209 | 5453 ft | 231 kts | 275° |
| 2026-05-05 08:13 | 47.43765 | 8.83863 | 5189 ft | 228 kts | 275° |
| 2026-05-05 08:13 | 47.43922 | 8.81588 | 5057 ft | 218 kts | 275° |
| 2026-05-05 08:13 | 47.44072 | 8.79359 | 4719 ft | 218 kts | 275° |
| 2026-05-05 08:13 | 47.44231 | 8.77138 | 4415 ft | 218 kts | 275° |
| 2026-05-05 08:14 | 47.44389 | 8.74911 | 4106 ft | 218 kts | 276° |
| 2026-05-05 08:14 | 47.44548 | 8.72695 | 3783 ft | 214 kts | 276° |
| 2026-05-05 08:14 | 47.44698 | 8.70561 | 3459 ft | 204 kts | 276° |
| 2026-05-05 08:14 | 47.44842 | 8.68546 | 3195 ft | 190 kts | 276° |
| 2026-05-05 08:15 | 47.44976 | 8.66670 | 2925 ft | 176 kts | 276° |
| 2026-05-05 08:15 | 47.45098 | 8.64942 | 2646 ft | 161 kts | 276° |
| 2026-05-05 08:15 | 47.45210 | 8.63373 | 2431 ft | 149 kts | 276° |
| 2026-05-05 08:15 | 47.45313 | 8.61861 | 2224 ft | 149 kts | 275° |
| 2026-05-05 08:16 | 47.45424 | 8.60335 | 2004 ft | 151 kts | 276° |
| 2026-05-05 08:16 | 47.45535 | 8.58803 | 1719 ft | 148 kts | 275° |
| 2026-05-05 08:16 | 47.45643 | 8.57309 | 1481 ft | 146 kts | 274° |
| 2026-05-05 08:16 | 47.45744 | 8.55859 | 1410 ft | 132 kts | 275° |
| 2026-05-05 08:17 | 47.45820 | 8.54776 | 1410 ft | 73 kts | 276° |
| 2026-05-05 08:17 | 47.45853 | 8.54368 | 1408 ft | 7 kts | 284° |
| 2026-05-05 08:17 | 47.45876 | 8.54304 | 1414 ft | 7 kts | 306° |
| 2026-05-05 08:17 | 47.45916 | 8.54265 | 1410 ft | 7 kts | 344° |
| 2026-05-05 08:18 | 47.45957 | 8.54309 | 1406 ft | 9 kts | 79° |
| 2026-05-05 08:18 | 47.45954 | 8.54400 | 1410 ft | 9 kts | 96° |
| 2026-05-05 08:18 | 47.45945 | 8.54523 | 1405 ft | 15 kts | 96° |
| 2026-05-05 08:18 | 47.45934 | 8.54678 | 1411 ft | 15 kts | 96° |
| 2026-05-05 08:19 | 47.45923 | 8.54833 | 1403 ft | 15 kts | 95° |
| 2026-05-05 08:19 | 47.45938 | 8.54979 | 1405 ft | 15 kts | 41° |
| 2026-05-05 08:19 | 47.45988 | 8.55044 | 1405 ft | 15 kts | 65° |
| 2026-05-05 08:19 | 47.45989 | 8.55167 | 1397 ft | 7 kts | 96° |
| 2026-05-05 08:20 | 47.46005 | 8.55226 | 1407 ft | 7 kts | 27° |
| 2026-05-05 08:20 | 47.46051 | 8.55239 | 1401 ft | 3 kts | 6° |
| 2026-05-05 08:20 | 47.46066 | 8.55241 | 1408 ft | 1 kts | 5° |
| 2026-05-05 08:20 | 47.46069 | 8.55241 | 1401 ft | 0 kts | 5° |